Time;durP1;ratioP1;P1;durP2;ratioP2;P2;SDS_P1;SDS_P2;PMS_P1;PMS_P2;Temp;Humidity;BMP_temperature;BMP_pressure;BME280_temperature;BME280_humidity;BME280_pressure;Samples;Min_cycle;Max_cycle;Signal;HPM_P1;HPM_P2
2023/10/04 00:00:40;;;;;;;4.93;2.20;;;10.50;99.90;;;;;;5011571;28;20202;-80
2023/10/04 00:03:06;;;;;;;3.97;2.23;;;10.50;99.90;;;;;;5013343;28;20179;-83
2023/10/04 00:05:34;;;;;;;3.27;2.10;;;10.60;99.90;;;;;;5013029;28;20208;-83
2023/10/04 00:08:00;;;;;;;4.03;2.23;;;10.60;99.90;;;;;;5011914;28;20199;-84
2023/10/04 00:10:25;;;;;;;6.03;2.20;;;10.70;99.90;;;;;;5011825;28;20248;-84
2023/10/04 00:12:52;;;;;;;2.90;2.00;;;10.60;99.90;;;;;;5012458;28;20184;-83
2023/10/04 00:15:20;;;;;;;4.37;2.03;;;10.60;99.90;;;;;;5004663;28;20198;-84
2023/10/04 00:17:47;;;;;;;4.27;2.40;;;10.70;99.90;;;;;;5012884;28;20685;-84
2023/10/04 00:20:16;;;;;;;3.53;2.33;;;10.70;99.90;;;;;;5011686;28;20179;-84
2023/10/04 00:22:46;;;;;;;4.17;2.23;;;10.80;99.90;;;;;;5011555;28;20193;-84
2023/10/04 00:25:16;;;;;;;4.20;2.33;;;10.80;99.90;;;;;;5011237;28;20202;-83
2023/10/04 00:27:43;;;;;;;3.77;2.20;;;10.80;99.90;;;;;;5012519;28;20223;-83
2023/10/04 00:30:14;;;;;;;3.10;2.00;;;10.80;99.90;;;;;;5012643;28;20183;-83
2023/10/04 00:32:39;;;;;;;5.00;2.30;;;10.80;99.90;;;;;;5012648;28;20267;-83
2023/10/04 00:35:12;;;;;;;4.27;2.27;;;10.80;99.90;;;;;;5012758;28;20262;-83
2023/10/04 00:37:43;;;;;;;3.67;2.10;;;10.90;99.90;;;;;;5011370;28;20199;-83
2023/10/04 00:40:15;;;;;;;3.77;2.10;;;10.90;99.90;;;;;;5012248;28;20186;-83
2023/10/04 00:42:41;;;;;;;4.00;2.40;;;10.80;99.90;;;;;;5006944;28;20186;-83
2023/10/04 00:45:12;;;;;;;5.30;2.10;;;10.80;99.90;;;;;;5012715;28;20203;-83
2023/10/04 00:47:41;;;;;;;4.03;2.10;;;10.80;99.90;;;;;;5012991;28;20564;-83
2023/10/04 00:50:14;;;;;;;4.07;2.10;;;10.80;99.90;;;;;;5011377;28;20175;-83
2023/10/04 00:53:02;;;;;;;3.93;2.40;;;10.90;99.90;;;;;;5011070;28;20246;-84
2023/10/04 00:55:29;;;;;;;3.27;2.00;;;10.80;99.90;;;;;;5012665;28;20210;-83
2023/10/04 00:57:56;;;;;;;3.30;2.00;;;10.80;99.90;;;;;;5012596;28;20198;-83
2023/10/04 01:00:22;;;;;;;6.10;2.20;;;10.80;99.90;;;;;;5012346;28;20186;-84
2023/10/04 01:02:48;;;;;;;4.13;2.30;;;10.80;99.90;;;;;;5010826;28;20522;-83
2023/10/04 01:05:18;;;;;;;3.53;2.00;;;10.80;99.90;;;;;;5011018;28;20291;-82
2023/10/04 01:07:44;;;;;;;3.80;2.13;;;10.70;99.90;;;;;;5012122;28;20187;-83
2023/10/04 01:10:15;;;;;;;7.13;2.47;;;10.70;99.90;;;;;;5010881;28;20203;-83
2023/10/04 01:12:46;;;;;;;3.87;2.10;;;10.60;99.90;;;;;;5010934;28;20178;-83
2023/10/04 01:18:06;;;;;;;4.77;2.10;;;10.60;99.90;;;;;;5012341;28;20256;-84
2023/10/04 01:20:33;;;;;;;3.03;2.10;;;10.60;99.90;;;;;;5010956;28;20191;-83
2023/10/04 01:23:01;;;;;;;3.50;2.17;;;10.50;99.90;;;;;;5012158;28;20183;-83
2023/10/04 01:25:31;;;;;;;4.37;2.17;;;10.40;99.90;;;;;;5012063;28;20217;-83
2023/10/04 01:27:58;;;;;;;5.50;2.77;;;10.50;99.90;;;;;;5010721;28;20206;-83
2023/10/04 01:30:24;;;;;;;3.23;2.47;;;10.60;99.90;;;;;;5011013;28;20185;-83
2023/10/04 01:32:50;;;;;;;4.63;3.20;;;10.60;99.90;;;;;;5010915;28;20270;-83
2023/10/04 01:35:18;;;;;;;4.13;2.80;;;10.70;99.90;;;;;;5010905;28;20603;-83
2023/10/04 01:37:44;;;;;;;4.13;2.80;;;10.60;99.90;;;;;;5027181;28;20293;-83
2023/10/04 01:40:14;;;;;;;4.60;2.90;;;10.60;99.90;;;;;;5012178;28;20211;-83
2023/10/04 01:42:45;;;;;;;4.77;3.00;;;10.60;99.90;;;;;;5011852;28;20677;-83
2023/10/04 01:45:13;;;;;;;6.10;3.03;;;10.60;99.90;;;;;;5027184;28;20211;-83
2023/10/04 01:47:38;;;;;;;4.10;3.17;;;10.60;99.90;;;;;;5011659;28;20738;-84
2023/10/04 01:50:06;;;;;;;4.47;3.00;;;10.60;99.90;;;;;;5010764;28;20168;-83
2023/10/04 01:52:31;;;;;;;4.17;3.00;;;10.60;99.90;;;;;;5013279;28;20175;-83
2023/10/04 01:54:58;;;;;;;4.47;3.20;;;10.60;99.90;;;;;;5015452;28;20182;-83
2023/10/04 01:57:24;;;;;;;5.53;3.50;;;10.60;99.90;;;;;;5015477;28;20219;-84
2023/10/04 01:59:49;;;;;;;4.53;3.27;;;10.60;99.90;;;;;;5014456;28;20289;-83
2023/10/04 02:02:17;;;;;;;4.33;3.50;;;10.60;99.90;;;;;;5015640;28;20179;-83
2023/10/04 02:04:46;;;;;;;3.63;3.30;;;10.50;99.90;;;;;;5014169;28;20266;-83
2023/10/04 02:07:12;;;;;;;6.23;3.63;;;10.60;99.90;;;;;;5015216;28;20547;-83
2023/10/04 02:09:38;;;;;;;5.77;3.90;;;10.50;99.90;;;;;;5013971;28;20233;-83
2023/10/04 02:12:04;;;;;;;5.00;3.90;;;10.50;99.90;;;;;;5014819;28;20206;-84
2023/10/04 02:14:33;;;;;;;6.20;3.80;;;10.50;99.90;;;;;;5015293;28;20179;-83
2023/10/04 02:16:59;;;;;;;5.53;3.70;;;10.40;99.90;;;;;;5015052;28;20235;-83
2023/10/04 02:19:25;;;;;;;6.33;4.07;;;10.40;99.90;;;;;;5015068;28;20179;-83
2023/10/04 02:21:51;;;;;;;5.80;4.00;;;10.40;99.90;;;;;;5013583;28;20229;-83
2023/10/04 02:24:16;;;;;;;4.40;3.80;;;10.40;99.90;;;;;;5014723;28;20187;-83
2023/10/04 02:26:42;;;;;;;5.93;4.03;;;10.40;99.90;;;;;;5015021;28;20207;-83
2023/10/04 02:29:09;;;;;;;4.50;3.70;;;10.40;99.90;;;;;;5015106;28;20266;-83
2023/10/04 02:31:36;;;;;;;5.50;3.60;;;10.40;99.90;;;;;;5014813;28;20229;-83
2023/10/04 02:34:04;;;;;;;6.00;3.67;;;10.40;99.90;;;;;;5014552;28;20217;-83
2023/10/04 02:36:30;;;;;;;4.83;3.83;;;10.50;99.90;;;;;;5013395;28;20264;-83
2023/10/04 02:38:57;;;;;;;5.83;4.07;;;10.40;99.90;;;;;;5013472;28;20655;-83
2023/10/04 02:41:23;;;;;;;5.67;4.00;;;10.50;99.90;;;;;;5013401;28;20174;-83
2023/10/04 02:43:48;;;;;;;6.33;4.27;;;10.60;99.90;;;;;;5014638;28;20202;-83
2023/10/04 02:46:16;;;;;;;5.17;4.10;;;10.50;99.90;;;;;;5014491;28;20205;-83
2023/10/04 02:48:43;;;;;;;6.20;4.07;;;10.60;99.90;;;;;;5013525;28;20210;-83
2023/10/04 02:51:09;;;;;;;5.60;4.10;;;10.60;99.90;;;;;;5013372;28;20615;-83
2023/10/04 02:53:39;;;;;;;5.47;4.23;;;10.70;99.90;;;;;;5013283;28;20202;-83
2023/10/04 02:56:07;;;;;;;4.87;3.80;;;10.70;99.90;;;;;;5013076;28;20286;-83
2023/10/04 02:58:34;;;;;;;5.30;4.23;;;10.70;99.90;;;;;;5013224;28;20171;-83
2023/10/04 03:01:00;;;;;;;6.33;4.07;;;10.70;99.90;;;;;;5013051;28;20627;-82
2023/10/04 03:03:26;;;;;;;6.20;4.20;;;10.70;99.90;;;;;;5013755;28;20180;-83
2023/10/04 03:05:52;;;;;;;6.03;4.10;;;10.80;99.90;;;;;;5012622;28;20195;-83
2023/10/04 03:08:17;;;;;;;6.73;4.60;;;10.70;99.90;;;;;;5013109;28;20167;-83
2023/10/04 03:10:44;;;;;;;5.30;4.40;;;10.80;99.90;;;;;;5014140;28;20224;-83
2023/10/04 03:13:19;;;;;;;5.47;4.10;;;10.80;99.90;;;;;;5014688;28;20203;-83
2023/10/04 03:15:48;;;;;;;4.90;4.33;;;10.70;99.90;;;;;;5012834;28;20596;-83
2023/10/04 03:18:13;;;;;;;7.53;4.47;;;10.70;99.90;;;;;;5014008;28;20205;-83
2023/10/04 03:20:54;;;;;;;6.10;4.37;;;10.80;99.90;;;;;;5014022;28;20215;-83
2023/10/04 03:23:21;;;;;;;5.30;4.37;;;10.80;99.90;;;;;;5013058;28;20232;-84
2023/10/04 03:25:47;;;;;;;9.63;5.40;;;10.80;99.90;;;;;;5013733;28;20207;-83
2023/10/04 03:28:14;;;;;;;5.33;4.70;;;10.80;99.90;;;;;;5013889;28;20167;-83
2023/10/04 03:30:40;;;;;;;6.40;4.63;;;10.80;99.90;;;;;;5013630;28;20171;-82
2023/10/04 03:33:05;;;;;;;6.67;4.50;;;10.90;99.90;;;;;;5013487;28;20670;-84
2023/10/04 03:35:31;;;;;;;6.67;4.47;;;10.80;99.90;;;;;;5013835;28;20562;-84
2023/10/04 03:38:01;;;;;;;8.67;3.93;;;10.80;99.90;;;;;;5013745;28;20200;-83
2023/10/04 03:40:38;;;;;;;4.93;4.27;;;10.90;99.90;;;;;;5013749;28;20167;-82
2023/10/04 03:43:06;;;;;;;5.57;4.50;;;10.90;99.90;;;;;;5013435;28;20254;-83
2023/10/04 03:45:39;;;;;;;6.20;4.63;;;10.90;99.90;;;;;;5012134;28;20198;-83
2023/10/04 03:48:10;;;;;;;5.77;4.20;;;10.80;99.90;;;;;;5013289;28;20215;-83
2023/10/04 03:50:36;;;;;;;5.43;4.30;;;10.90;99.90;;;;;;5013464;28;20175;-83
2023/10/04 03:53:01;;;;;;;5.87;4.20;;;10.80;99.90;;;;;;5013321;28;20175;-83
2023/10/04 03:55:27;;;;;;;5.93;4.13;;;10.80;99.90;;;;;;5013263;28;20175;-83
2023/10/04 03:57:54;;;;;;;5.60;4.43;;;10.90;99.90;;;;;;5012976;28;20199;-83
2023/10/04 04:00:22;;;;;;;6.23;4.17;;;10.80;99.90;;;;;;5013255;28;20640;-83
2023/10/04 04:02:49;;;;;;;6.63;4.17;;;10.80;99.90;;;;;;5013345;28;20598;-83
2023/10/04 04:05:14;;;;;;;5.37;4.07;;;10.80;99.90;;;;;;5013044;28;20230;-84
2023/10/04 04:07:41;;;;;;;4.33;3.67;;;10.80;99.90;;;;;;5013097;28;20290;-83
2023/10/04 04:10:08;;;;;;;5.80;4.10;;;10.90;99.90;;;;;;5028215;28;20567;-83
2023/10/04 04:12:35;;;;;;;5.60;4.03;;;10.80;99.90;;;;;;5011517;28;20181;-83
2023/10/04 04:15:02;;;;;;;4.07;3.40;;;10.90;99.90;;;;;;5011654;28;20202;-83
2023/10/04 04:17:28;;;;;;;5.20;3.53;;;10.90;99.90;;;;;;5012778;28;20287;-83
2023/10/04 04:19:54;;;;;;;3.77;3.27;;;10.90;99.90;;;;;;5012873;28;20253;-84
2023/10/04 04:22:23;;;;;;;5.07;3.57;;;10.90;99.90;;;;;;5011598;28;20643;-84
2023/10/04 04:24:52;;;;;;;3.80;3.33;;;10.90;99.90;;;;;;5013099;28;20225;-82
2023/10/04 04:27:22;;;;;;;3.80;3.30;;;10.90;99.90;;;;;;5012816;28;20282;-82
2023/10/04 04:29:48;;;;;;;6.03;3.80;;;10.80;99.90;;;;;;5012468;28;20305;-84
2023/10/04 04:32:15;;;;;;;7.97;4.10;;;10.80;99.90;;;;;;5012611;28;20171;-84
2023/10/04 04:34:42;;;;;;;6.27;3.50;;;10.80;99.90;;;;;;5011386;28;20326;-84
2023/10/04 04:37:08;;;;;;;4.77;3.53;;;10.80;99.90;;;;;;5012717;28;20195;-85
2023/10/04 04:39:34;;;;;;;4.43;3.27;;;10.80;99.90;;;;;;5012549;28;20222;-84
2023/10/04 04:42:00;;;;;;;5.47;3.20;;;10.80;99.90;;;;;;5011114;28;20288;-85
2023/10/04 04:44:33;;;;;;;4.57;3.27;;;10.80;99.90;;;;;;5012574;28;20209;-84
2023/10/04 04:46:59;;;;;;;3.93;2.80;;;10.80;99.90;;;;;;5012329;28;20206;-85
2023/10/04 04:49:25;;;;;;;4.57;3.40;;;10.80;99.90;;;;;;5012583;28;20178;-83
2023/10/04 04:51:50;;;;;;;5.37;3.37;;;10.80;99.90;;;;;;5012127;28;20221;-83
2023/10/04 04:54:18;;;;;;;6.83;3.47;;;10.70;99.90;;;;;;5012352;28;20217;-85
2023/10/04 04:56:44;;;;;;;5.53;3.17;;;10.80;99.90;;;;;;5012258;28;20203;-84
2023/10/04 04:59:09;;;;;;;4.53;3.20;;;10.70;99.90;;;;;;5012164;28;20242;-84
2023/10/04 05:01:38;;;;;;;4.57;3.13;;;10.70;99.90;;;;;;5012201;28;20183;-83
2023/10/04 05:04:06;;;;;;;5.43;3.40;;;10.70;99.90;;;;;;5012208;28;20211;-85
2023/10/04 05:06:32;;;;;;;5.53;3.20;;;10.80;99.90;;;;;;5010850;28;20245;-83
2023/10/04 05:08:58;;;;;;;5.40;3.47;;;10.70;99.90;;;;;;5012012;28;20179;-83
2023/10/04 05:11:24;;;;;;;4.40;3.47;;;10.70;99.90;;;;;;5011122;28;20181;-86
2023/10/04 05:13:54;;;;;;;5.50;3.80;;;10.70;99.90;;;;;;5011071;28;20207;-82
2023/10/04 05:16:20;;;;;;;4.77;3.53;;;10.80;99.90;;;;;;5011075;28;20203;-83
2023/10/04 05:18:46;;;;;;;5.40;3.70;;;10.80;99.90;;;;;;5010924;28;20179;-83
2023/10/04 05:21:12;;;;;;;4.90;3.60;;;10.80;99.90;;;;;;5011963;28;20210;-83
2023/10/04 05:23:38;;;;;;;5.77;3.60;;;10.80;99.90;;;;;;5011117;28;20186;-84
2023/10/04 05:26:04;;;;;;;4.57;3.63;;;10.80;99.90;;;;;;5012204;28;20191;-85
2023/10/04 05:28:30;;;;;;;5.47;3.70;;;10.80;99.90;;;;;;5014040;28;20183;-84
2023/10/04 05:30:56;;;;;;;6.23;3.90;;;10.90;99.90;;;;;;5016139;28;20184;-85
2023/10/04 05:33:22;;;;;;;5.23;4.03;;;10.80;99.90;;;;;;5016075;28;20171;-83
2023/10/04 05:35:53;;;;;;;5.10;3.77;;;10.80;99.90;;;;;;5014622;28;20209;-82
2023/10/04 05:38:19;;;;;;;5.30;3.70;;;10.80;99.90;;;;;;5014517;28;20175;-84
2023/10/04 05:40:46;;;;;;;5.37;4.10;;;10.80;99.90;;;;;;5014714;28;20226;-82
2023/10/04 05:43:13;;;;;;;5.73;3.80;;;10.80;99.90;;;;;;5015630;28;20678;-84
2023/10/04 05:45:42;;;;;;;5.20;4.10;;;10.80;99.90;;;;;;5015698;28;20203;-86
2023/10/04 05:48:09;;;;;;;6.57;4.10;;;10.80;99.90;;;;;;5014266;28;20186;-85
2023/10/04 05:50:35;;;;;;;6.40;4.27;;;10.90;99.90;;;;;;5015273;28;20179;-83
2023/10/04 05:53:05;;;;;;;6.53;4.10;;;11.00;99.90;;;;;;5030532;28;20647;-84
2023/10/04 05:55:37;;;;;;;4.83;3.73;;;11.00;99.90;;;;;;5014251;28;20263;-84
2023/10/04 05:58:07;;;;;;;7.80;4.00;;;11.10;99.90;;;;;;5013518;28;20199;-82
2023/10/04 06:00:37;;;;;;;6.47;3.67;;;11.10;99.90;;;;;;5015361;28;20581;-83
2023/10/04 06:03:07;;;;;;;8.23;3.90;;;11.10;99.90;;;;;;5015157;28;20599;-84
2023/10/04 06:05:37;;;;;;;5.27;3.70;;;11.10;99.90;;;;;;5015417;28;20582;-83
2023/10/04 06:08:15;;;;;;;6.23;3.87;;;11.10;99.90;;;;;;5015342;28;20294;-83
2023/10/04 06:10:43;;;;;;;5.63;4.00;;;11.00;99.90;;;;;;5019121;28;20197;-80
2023/10/04 06:13:11;;;;;;;6.33;4.00;;;11.10;99.90;;;;;;5035806;28;20259;-84
2023/10/04 06:15:46;;;;;;;4.43;3.43;;;11.10;99.90;;;;;;5020424;28;20204;-84
2023/10/04 06:18:12;;;;;;;4.00;3.43;;;11.20;99.90;;;;;;5022526;28;20179;-83
2023/10/04 06:20:40;;;;;;;7.23;3.73;;;11.20;99.90;;;;;;5019541;28;20175;-83
2023/10/04 06:23:09;;;;;;;5.63;3.70;;;11.20;99.90;;;;;;5017395;28;20191;-82
2023/10/04 06:25:41;;;;;;;6.33;3.43;;;11.10;99.90;;;;;;5022317;28;20206;-86
2023/10/04 06:28:07;;;;;;;6.67;4.00;;;11.10;99.90;;;;;;5022155;28;20195;-84
2023/10/04 06:30:34;;;;;;;6.93;3.73;;;11.10;99.90;;;;;;5024233;28;20183;-84
2023/10/04 06:33:02;;;;;;;6.30;3.90;;;11.10;99.90;;;;;;5021287;28;20199;-84
2023/10/04 06:35:28;;;;;;;5.20;3.87;;;11.10;99.90;;;;;;5024818;28;20186;-84
2023/10/04 06:37:58;;;;;;;6.10;3.77;;;11.10;99.90;;;;;;5022791;28;20198;-84
2023/10/04 06:40:25;;;;;;;4.93;3.67;;;11.10;99.90;;;;;;5019969;28;20175;-84
2023/10/04 06:42:52;;;;;;;6.43;3.80;;;11.10;99.90;;;;;;5014680;28;20540;-84
2023/10/04 06:45:19;;;;;;;5.70;4.10;;;11.20;99.90;;;;;;5014746;28;20205;-84
2023/10/04 06:47:47;;;;;;;6.37;4.40;;;11.20;99.90;;;;;;5079160;23;20222;-83
2023/10/04 06:50:15;;;;;;;6.90;3.97;;;11.20;99.90;;;;;;5033615;28;20170;-83
2023/10/04 06:52:51;;;;;;;6.90;4.13;;;11.10;99.90;;;;;;5032744;28;20174;-83
2023/10/04 06:55:18;;;;;;;4.70;3.73;;;11.10;99.90;;;;;;5034716;28;20170;-83
2023/10/04 06:57:45;;;;;;;5.93;4.13;;;11.00;99.90;;;;;;5032996;28;20194;-83
2023/10/04 07:00:22;;;;;;;6.90;3.97;;;11.10;99.90;;;;;;5033216;28;20602;-83
2023/10/04 07:02:53;;;;;;;6.83;3.67;;;11.10;99.90;;;;;;5034177;28;20178;-83
2023/10/04 07:05:22;;;;;;;4.93;3.47;;;11.10;99.90;;;;;;5034423;28;20288;-83
2023/10/04 07:07:49;;;;;;;6.33;3.90;;;11.10;99.90;;;;;;5033005;28;20197;-83
2023/10/04 07:10:15;;;;;;;6.43;4.03;;;11.10;99.90;;;;;;5034375;28;20701;-83
2023/10/04 07:12:45;;;;;;;8.73;3.73;;;11.10;99.90;;;;;;5032427;28;20741;-83
2023/10/04 07:15:12;;;;;;;5.30;3.33;;;11.20;99.90;;;;;;5032782;28;20663;-83
2023/10/04 07:17:39;;;;;;;6.13;3.63;;;11.20;99.90;;;;;;5032454;28;20197;-83
2023/10/04 07:20:14;;;;;;;6.60;3.40;;;11.30;99.90;;;;;;5033897;28;20166;-83
2023/10/04 07:22:45;;;;;;;4.00;3.33;;;11.30;99.90;;;;;;5033946;28;20265;-83
2023/10/04 07:25:12;;;;;;;5.07;3.67;;;11.30;99.90;;;;;;5033774;28;20193;-83
2023/10/04 07:27:42;;;;;;;6.40;3.50;;;11.40;99.90;;;;;;5032777;28;20213;-83
2023/10/04 07:30:12;;;;;;;4.73;3.40;;;11.40;99.90;;;;;;5032863;28;20198;-83
2023/10/04 07:32:41;;;;;;;8.07;3.27;;;11.40;99.90;;;;;;5032744;28;20170;-83
2023/10/04 07:35:16;;;;;;;7.27;3.70;;;11.50;99.90;;;;;;5032917;28;20175;-83
2023/10/04 07:37:42;;;;;;;6.50;3.67;;;11.50;99.90;;;;;;5032446;28;20250;-83
2023/10/04 07:40:09;;;;;;;6.07;3.60;;;11.60;99.90;;;;;;5033650;28;20186;-83
2023/10/04 07:42:39;;;;;;;5.90;3.43;;;11.70;99.90;;;;;;5033638;28;20168;-83
2023/10/04 07:45:10;;;;;;;4.13;3.00;;;11.70;99.90;;;;;;5033573;28;20337;-83
2023/10/04 07:47:37;;;;;;;4.90;3.10;;;11.70;99.90;;;;;;5033617;28;20206;-83
2023/10/04 07:50:09;;;;;;;7.60;3.23;;;11.70;99.90;;;;;;5031677;28;20182;-83
2023/10/04 07:52:37;;;;;;;5.33;3.13;;;11.70;99.90;;;;;;5031958;28;20646;-82
2023/10/04 07:55:05;;;;;;;6.20;3.33;;;11.80;99.90;;;;;;5033460;28;20197;-83
2023/10/04 07:57:36;;;;;;;8.37;2.97;;;11.80;99.90;;;;;;5033397;28;20202;-83
2023/10/04 08:00:06;;;;;;;6.97;2.80;;;11.90;99.90;;;;;;5033666;28;20205;-84
2023/10/04 08:02:31;;;;;;;5.00;2.73;;;11.90;99.90;;;;;;5033006;28;20190;-83
2023/10/04 08:04:57;;;;;;;5.07;2.80;;;11.90;99.90;;;;;;5033237;28;20203;-83
2023/10/04 08:07:22;;;;;;;4.83;3.27;;;11.90;99.90;;;;;;5031754;28;20191;-83
2023/10/04 08:09:48;;;;;;;5.63;2.83;;;11.90;99.90;;;;;;5031774;28;20214;-83
2023/10/04 08:12:14;;;;;;;5.83;2.87;;;11.90;99.90;;;;;;5033186;28;20270;-83
2023/10/04 08:14:40;;;;;;;6.03;3.33;;;12.00;99.90;;;;;;5033203;28;20170;-83
2023/10/04 08:17:06;;;;;;;4.03;2.73;;;11.90;99.90;;;;;;5033239;28;20212;-83
2023/10/04 08:19:32;;;;;;;5.23;3.50;;;11.90;99.90;;;;;;5033071;28;20265;-83
2023/10/04 08:21:58;;;;;;;5.47;2.90;;;11.90;99.90;;;;;;5031340;28;20240;-83
2023/10/04 08:24:23;;;;;;;4.57;2.90;;;12.00;99.90;;;;;;5033106;28;20209;-83
2023/10/04 08:26:50;;;;;;;4.77;3.40;;;11.90;99.90;;;;;;5031685;28;20198;-83
2023/10/04 08:29:15;;;;;;;8.27;3.60;;;12.00;99.90;;;;;;5032880;28;20185;-83
2023/10/04 08:31:41;;;;;;;5.87;3.77;;;12.10;99.90;;;;;;5031473;28;20175;-83
2023/10/04 08:34:06;;;;;;;7.27;4.07;;;12.10;99.90;;;;;;5031360;28;20639;-82
2023/10/04 08:36:37;;;;;;;7.30;3.87;;;12.20;99.90;;;;;;5031258;28;20209;-80
2023/10/04 08:39:10;;;;;;;7.13;3.97;;;12.20;99.90;;;;;;5031829;28;20202;-83
2023/10/04 08:41:36;;;;;;;8.37;4.00;;;12.30;99.90;;;;;;5031236;28;20242;-83
2023/10/04 08:44:03;;;;;;;8.63;4.17;;;12.30;99.90;;;;;;5032483;28;20209;-83
2023/10/04 08:46:31;;;;;;;7.97;4.53;;;12.40;99.90;;;;;;5032513;28;20198;-83
2023/10/04 08:48:58;;;;;;;8.83;4.20;;;12.40;99.90;;;;;;5031434;28;20180;-83
2023/10/04 08:51:39;;;;;;;6.27;4.00;;;12.50;99.90;;;;;;5031309;28;20190;-82
2023/10/04 08:54:12;;;;;;;7.30;4.20;;;12.60;99.90;;;;;;5032554;28;20178;-82
2023/10/04 08:56:57;;;;;;;5.10;3.60;;;12.60;99.90;;;;;;5031432;28;20229;-83
2023/10/04 08:59:24;;;;;;;7.47;3.97;;;12.60;99.90;;;;;;5031307;28;20642;-83
2023/10/04 09:01:52;;;;;;;6.93;3.33;;;12.50;99.90;;;;;;5030349;28;20178;-82
2023/10/04 09:04:22;;;;;;;7.57;3.97;;;12.50;99.90;;;;;;5032474;28;20209;-83
2023/10/04 09:06:48;;;;;;;8.93;3.80;;;12.50;99.90;;;;;;5032628;28;20190;-82
2023/10/04 09:09:15;;;;;;;5.77;3.87;;;12.50;99.90;;;;;;5031228;28;20174;-83
2023/10/04 09:11:41;;;;;;;5.57;3.50;;;12.50;99.90;;;;;;5030896;28;20174;-83
2023/10/04 09:14:08;;;;;;;5.93;3.53;;;12.40;99.90;;;;;;5032061;28;20183;-83
2023/10/04 09:16:34;;;;;;;9.20;4.10;;;12.40;99.90;;;;;;5031297;28;20201;-83
2023/10/04 09:19:18;;;;;;;7.93;3.77;;;12.40;99.90;;;;;;5032296;28;20182;-83
2023/10/04 09:21:51;;;;;;;5.53;3.27;;;12.40;99.90;;;;;;5032205;28;20245;-83
2023/10/04 09:24:16;;;;;;;7.17;3.70;;;12.40;99.90;;;;;;5030868;28;20208;-82
2023/10/04 09:26:54;;;;;;;5.60;3.40;;;12.40;99.90;;;;;;5032095;28;20198;-82
2023/10/04 09:29:36;;;;;;;5.63;3.30;;;12.50;99.90;;;;;;5031020;28;20209;-83
2023/10/04 09:32:03;;;;;;;4.47;3.27;;;12.40;99.90;;;;;;5031900;28;20182;-83
2023/10/04 09:34:30;;;;;;;5.40;3.67;;;12.50;99.90;;;;;;5031232;28;20666;-83
2023/10/04 09:36:56;;;;;;;6.10;3.30;;;12.50;99.90;;;;;;5032110;28;20198;-83
2023/10/04 09:39:32;;;;;;;7.53;3.40;;;12.70;99.90;;;;;;5030859;28;20190;-82
2023/10/04 09:42:02;;;;;;;7.17;3.40;;;12.80;99.90;;;;;;5031823;28;20178;-82
2023/10/04 09:44:29;;;;;;;5.47;3.03;;;12.80;99.90;;;;;;5030822;28;20253;-83
2023/10/04 09:47:03;;;;;;;6.37;3.03;;;12.80;99.90;;;;;;5030517;28;20729;-83
2023/10/04 09:49:33;;;;;;;4.23;3.03;;;12.80;99.90;;;;;;5030745;28;20183;-83
2023/10/04 09:52:12;;;;;;;5.83;2.77;;;12.80;99.90;;;;;;5030726;28;20212;-82
2023/10/04 09:54:38;;;;;;;5.17;2.90;;;12.80;99.90;;;;;;5030797;28;20274;-83
2023/10/04 09:57:08;;;;;;;5.57;3.30;;;12.90;99.90;;;;;;5031898;28;20285;-82
2023/10/04 09:59:37;;;;;;;4.50;3.00;;;13.00;99.90;;;;;;5031895;28;20179;-82
2023/10/04 10:02:05;;;;;;;5.87;3.57;;;12.90;99.90;;;;;;5030457;28;20182;-83
2023/10/04 10:04:36;;;;;;;5.53;3.17;;;13.00;99.90;;;;;;5030647;28;20636;-83
2023/10/04 10:07:10;;;;;;;4.13;2.50;;;13.10;99.90;;;;;;5032158;28;20195;-83
2023/10/04 10:09:53;;;;;;;3.50;2.73;;;13.20;99.90;;;;;;5031870;28;20174;-82
2023/10/04 10:12:21;;;;;;;5.17;2.70;;;13.20;99.90;;;;;;5030480;28;20178;-82
2023/10/04 10:14:48;;;;;;;5.20;3.30;;;13.20;99.90;;;;;;5034855;28;20178;-83
2023/10/04 10:17:17;;;;;;;5.33;3.17;;;13.40;99.90;;;;;;5035518;28;20670;-83
2023/10/04 10:19:44;;;;;;;4.53;2.73;;;13.70;99.90;;;;;;5035371;28;20182;-82
2023/10/04 10:22:16;;;;;;;4.63;2.90;;;14.00;99.90;;;;;;5035173;28;20179;-83
2023/10/04 10:25:25;;;;;;;4.83;2.63;;;14.20;33.40;;;;;;5035441;28;20206;-83
2023/10/04 10:28:01;;;;;;;4.40;2.83;;;14.40;99.90;;;;;;5033544;28;20284;-82
2023/10/04 10:30:28;;;;;;;2.77;2.33;;;14.20;8.40;;;;;;5035153;28;20265;-82
2023/10/04 10:32:58;;;;;;;6.30;2.57;;;14.10;1.00;;;;;;5034035;28;20182;-83
2023/10/04 10:38:43;;;;;;;6.43;2.50;;;14.10;80.70;;;;;;5035709;28;20228;-84
2023/10/04 10:41:31;;;;;;;3.73;2.40;;;14.20;1.00;;;;;;5034797;28;20178;-83
2023/10/04 10:44:19;;;;;;;3.60;2.60;;;14.10;1.00;;;;;;5034395;28;20174;-83
2023/10/04 10:46:58;;;;;;;4.70;2.50;;;13.90;1.00;;;;;;5034960;28;20747;-83
2023/10/04 10:49:48;;;;;;;4.10;2.37;;;14.00;24.60;;;;;;5034741;28;20174;-83
2023/10/04 10:52:27;;;;;;;5.67;2.60;;;14.00;5.20;;;;;;5033270;28;20218;-83
2023/10/04 10:54:55;;;;;;;4.30;2.80;;;14.30;1.00;;;;;;5033454;28;20178;-83
2023/10/04 10:57:23;;;;;;;5.17;2.30;;;14.50;1.00;;;;;;5034771;28;20206;-83
2023/10/04 10:59:52;;;;;;;7.00;2.37;;;14.90;1.00;;;;;;5034693;28;20174;-83
2023/10/04 11:02:18;;;;;;;4.33;2.40;;;15.10;99.90;;;;;;5034491;28;20570;-83
2023/10/04 11:04:44;;;;;;;5.83;2.50;;;15.40;1.00;;;;;;5034134;28;20201;-82
2023/10/04 11:07:11;;;;;;;4.57;2.53;;;15.80;99.90;;;;;;5034508;28;20190;-83
2023/10/04 11:09:39;;;;;;;4.13;2.30;;;15.50;1.00;;;;;;5033353;28;20257;-82
2023/10/04 11:12:09;;;;;;;6.17;2.90;;;15.30;99.90;;;;;;5034162;28;20255;-82
2023/10/04 11:14:37;;;;;;;6.37;2.73;;;15.30;1.00;;;;;;5034338;28;20179;-82
2023/10/04 11:17:04;;;;;;;3.03;2.30;;;15.30;1.00;;;;;;5032832;28;20194;-82
2023/10/04 11:19:32;;;;;;;4.37;2.50;;;15.20;99.90;;;;;;5033303;28;20653;-83
2023/10/04 11:21:59;;;;;;;5.30;2.10;;;15.40;99.90;;;;;;5032973;28;20170;-83
2023/10/04 11:24:26;;;;;;;4.77;2.20;;;15.50;1.00;;;;;;5033628;28;20261;-83
2023/10/04 11:26:56;;;;;;;5.50;2.33;;;15.80;1.00;;;;;;5034027;28;20199;-83
2023/10/04 11:29:29;;;;;;;4.80;2.13;;;16.00;99.90;;;;;;5032974;28;20206;-83
2023/10/04 11:31:56;;;;;;;4.77;2.10;;;16.40;99.90;;;;;;5033635;28;20646;-83
2023/10/04 11:34:22;;;;;;;4.23;2.03;;;16.80;91.30;;;;;;5032538;28;20178;-83
2023/10/04 11:36:48;;;;;;;3.97;2.00;;;16.90;1.00;;;;;;5033980;28;20663;-83
2023/10/04 11:39:19;;;;;;;4.13;2.13;;;16.60;99.90;;;;;;5033703;28;20178;-83
2023/10/04 11:41:51;;;;;;;3.57;1.90;;;16.40;1.00;;;;;;5033900;28;20174;-82
2023/10/04 11:44:18;;;;;;;4.10;2.27;;;16.00;99.90;;;;;;5033642;28;20202;-83
2023/10/04 11:47:04;;;;;;;5.27;2.20;;;15.80;1.00;;;;;;5033625;28;20233;-82
2023/10/04 11:49:33;;;;;;;5.03;2.33;;;15.60;99.90;;;;;;5033696;28;20170;-83
2023/10/04 11:52:01;;;;;;;6.07;2.40;;;15.60;99.90;;;;;;5033878;28;20261;-83
2023/10/04 11:54:56;;;;;;;5.13;2.47;;;15.60;70.10;;;;;;5031999;28;20181;-82
2023/10/04 11:57:27;;;;;;;4.30;1.80;;;15.70;1.00;;;;;;5019523;28;20207;-82
2023/10/04 11:59:56;;;;;;;6.20;2.40;;;15.70;1.00;;;;;;5032054;28;20174;-83
2023/10/04 12:02:22;;;;;;;5.10;2.20;;;15.80;24.00;;;;;;5033324;28;20228;-82
2023/10/04 12:04:48;;;;;;;3.43;2.00;;;15.90;1.00;;;;;;5032027;28;20198;-82
2023/10/04 12:07:13;;;;;;;4.97;2.23;;;15.90;1.00;;;;;;5031965;28;20616;-84
2023/10/04 12:09:39;;;;;;;4.23;2.00;;;15.90;99.90;;;;;;5032233;28;20212;-83
2023/10/04 12:12:05;;;;;;;4.23;2.30;;;16.10;99.90;;;;;;5031977;28;20255;-82
2023/10/04 12:14:34;;;;;;;4.57;1.90;;;16.10;99.90;;;;;;5033370;28;20182;-83
2023/10/04 12:17:04;;;;;;;2.97;1.90;;;16.10;1.00;;;;;;5033041;28;20199;-83
2023/10/04 12:19:31;;;;;;;6.83;2.10;;;16.40;1.00;;;;;;5033035;28;20201;-83
2023/10/04 12:22:02;;;;;;;2.90;2.00;;;17.00;99.90;;;;;;5031660;28;20178;-82
2023/10/04 12:24:30;;;;;;;4.03;1.80;;;17.00;99.90;;;;;;5031742;28;20701;-83
2023/10/04 12:26:58;;;;;;;4.90;2.20;;;16.90;54.60;;;;;;5031888;28;20577;-82
2023/10/04 12:29:24;;;;;;;4.50;1.90;;;16.90;1.00;;;;;;5031423;28;20170;-83
2023/10/04 12:31:50;;;;;;;4.40;1.80;;;17.00;99.90;;;;;;5032703;28;20261;-83
2023/10/04 12:34:16;;;;;;;4.00;2.10;;;16.80;1.00;;;;;;5031392;28;20304;-83
2023/10/04 12:36:41;;;;;;;4.90;2.47;;;16.70;33.40;;;;;;5031678;28;20279;-83
2023/10/04 12:39:07;;;;;;;4.63;2.20;;;16.60;99.90;;;;;;5032727;28;20531;-83
2023/10/04 12:41:33;;;;;;;5.27;2.27;;;16.70;99.90;;;;;;5031201;28;20557;-83
2023/10/04 12:43:58;;;;;;;3.30;2.00;;;16.70;1.00;;;;;;5031545;28;20232;-83
2023/10/04 12:46:24;;;;;;;3.97;2.37;;;16.80;43.40;;;;;;5032985;28;20262;-83
2023/10/04 12:48:50;;;;;;;4.10;2.23;;;16.70;1.00;;;;;;5083719;23;20226;-84
2023/10/04 12:51:15;;;;;;;4.33;2.10;;;16.60;99.90;;;;;;5031897;28;20702;-84
2023/10/04 12:53:42;;;;;;;4.33;2.20;;;16.50;1.00;;;;;;5032262;28;20654;-84
2023/10/04 12:56:11;;;;;;;5.40;2.20;;;16.60;66.90;;;;;;5032203;28;20560;-84
2023/10/04 12:58:36;;;;;;;5.83;2.30;;;16.50;1.00;;;;;;5014444;28;20190;-84
2023/10/04 13:01:05;;;;;;;4.40;2.20;;;16.50;1.00;;;;;;5014291;28;20174;-84